Newfoundland, Pennsylvania
Current Conditions -  °F | °C
As of 5:53 AM on Saturday 20 Dec 2014 (Local Time) from KMPO Reporting Station
Overcast Overcast  
Wind Chill: 15°   Ceiling: 1100
Heat Index: 24°   Visibility: 10mi
Dew Point: 18°   Wind: 8mph
Humidity: 77%   Direction: 330°NNW
Pressure: 30.14"   Gusts: NA
Location:  41.31°N, 75.32°W
Report Text: KMPO 201053Z AUTO 33007KT 10SM OVC011 M04/M08 A3014 RMK AO2 SLP235 T10441078
Loading
Personal Weather Stations






























Interactive Weather Map New forecast layout! Learn more

10-Day Weather Forecast

Advertisements
Track Severe Weather on mobile